Terminal Aerodrome Forecast
Issued by NWS

Home | Current Version | Previous Version | Text Only | Print | Product List | Glossary On
Versions: 1 2 3 4 5 6 7 8 9 10 11 12 13 14 15 16 17
000
FTUS43 KGRB 230500
TAFRHI
TAF
KRHI 230520Z 2306/2406 00000KT P6SM SKC
     FM231300 14006KT P6SM SCT100 OVC200
     FM232200 14007KT P6SM SCT040 BKN090
     FM240500 14006KT P6SM -RA BKN040 OVC070=

USA.gov is the U.S. government's official web portal to all federal, state and local government web resources and services.